Time;durP1;ratioP1;P1;durP2;ratioP2;P2;SDS_P1;SDS_P2;PMS_P1;PMS_P2;Temp;Humidity;BMP_temperature;BMP_pressure;BME280_temperature;BME280_humidity;BME280_pressure;Samples;Min_cycle;Max_cycle;Signal;HPM_P1;HPM_P2
2021/07/18 00:01:57;;;;;;;;;11.00;8.75;;;;;21.08;63.92;101971.94;5043203;28;46301;-61
2021/07/18 00:04:22;;;;;;;;;7.50;7.50;;;;;21.06;63.92;101969.38;5050492;28;45489;-61
2021/07/18 00:06:47;;;;;;;;;8.50;7.50;;;;;21.04;65.59;101965.94;5055150;28;45280;-60
2021/07/18 00:09:13;;;;;;;;;9.75;9.50;;;;;21.01;64.39;101970.53;5053734;28;45460;-60
2021/07/18 00:11:39;;;;;;;;;10.50;7.50;;;;;20.98;64.67;101963.59;5056895;28;46036;-63
2021/07/18 00:14:05;;;;;;;;;10.00;8.00;;;;;20.95;64.53;101961.97;5052205;28;45399;-60
2021/07/18 00:16:32;;;;;;;;;10.25;9.00;;;;;20.94;64.16;101965.56;5052704;28;45471;-63
2021/07/18 00:18:57;;;;;;;;;9.00;9.00;;;;;20.96;64.00;101970.75;5047320;28;45312;-66
2021/07/18 00:21:23;;;;;;;;;7.50;7.50;;;;;20.94;64.45;101973.47;5048388;28;45237;-60
2021/07/18 00:23:48;;;;;;;;;8.50;7.00;;;;;20.94;64.46;101967.34;5049495;28;45220;-61
2021/07/18 00:26:14;;;;;;;;;10.00;8.50;;;;;20.91;65.54;101976.28;5046253;28;45462;-60
2021/07/18 00:28:39;;;;;;;;;8.00;7.75;;;;;20.92;65.58;101969.22;5048352;28;45465;-62
2021/07/18 00:31:05;;;;;;;;;8.50;8.25;;;;;20.90;64.89;101973.72;5046986;28;46960;-62
2021/07/18 00:33:30;;;;;;;;;15.00;8.75;;;;;20.89;64.35;101972.03;5042846;28;45644;-60
2021/07/18 00:35:56;;;;;;;;;13.25;8.00;;;;;20.88;65.15;101971.16;5048584;28;45848;-60
2021/07/18 00:38:21;;;;;;;;;13.50;10.00;;;;;20.85;65.69;101971.31;5048025;28;45506;-60
2021/07/18 00:40:47;;;;;;;;;14.00;9.00;;;;;20.82;64.96;101963.56;5047096;28;46245;-60
2021/07/18 00:43:13;;;;;;;;;13.25;9.50;;;;;20.81;65.13;101969.75;5044813;28;45323;-60
2021/07/18 00:45:38;;;;;;;;;10.25;10.00;;;;;20.82;65.35;101970.59;5048358;28;45395;-60
2021/07/18 00:48:05;;;;;;;;;10.50;10.50;;;;;20.81;65.28;101977.69;5055720;28;45446;-60
2021/07/18 00:50:32;;;;;;;;;9.00;9.00;;;;;20.79;65.70;101971.63;5060140;28;45491;-60
2021/07/18 00:52:57;;;;;;;;;10.75;9.50;;;;;20.78;65.64;101972.56;5061142;28;45370;-60
2021/07/18 00:55:22;;;;;;;;;11.50;10.00;;;;;20.76;66.78;101971.78;5060157;28;45460;-60
2021/07/18 00:57:50;;;;;;;;;11.25;9.50;;;;;20.73;65.68;101974.56;5060703;28;45511;-60
2021/07/18 01:00:17;;;;;;;;;7.75;7.75;;;;;20.70;65.79;101976.53;5053831;28;45429;-60
2021/07/18 01:02:43;;;;;;;;;11.00;9.00;;;;;20.65;65.21;101969.69;5041744;28;45787;-61
2021/07/18 01:05:11;;;;;;;;;7.00;7.00;;;;;20.69;66.64;101964.25;5059106;28;45340;-61
2021/07/18 01:07:36;;;;;;;;;9.75;9.00;;;;;20.68;66.06;101967.81;5060655;28;45539;-62
2021/07/18 01:10:04;;;;;;;;;11.50;10.50;;;;;20.63;65.84;101968.91;5059721;28;45360;-61
2021/07/18 01:12:30;;;;;;;;;10.00;9.00;;;;;20.59;66.34;101967.34;5060488;28;45216;-61
2021/07/18 01:14:55;;;;;;;;;7.00;7.00;;;;;20.57;66.13;101971.84;5060306;28;45192;-61
2021/07/18 01:17:21;;;;;;;;;13.25;8.25;;;;;20.57;65.73;101970.97;5060587;28;45170;-61
2021/07/18 01:19:46;;;;;;;;;14.00;11.00;;;;;20.54;65.31;101979.91;5059801;28;45236;-61
2021/07/18 01:22:12;;;;;;;;;10.75;10.00;;;;;20.54;65.97;101987.00;5060540;28;45201;-61
2021/07/18 01:24:37;;;;;;;;;8.00;8.00;;;;;20.54;65.66;101973.78;5060023;28;45453;-61
2021/07/18 01:27:04;;;;;;;;;11.50;10.25;;;;;20.54;66.11;101982.56;5059984;28;45304;-60
2021/07/18 01:29:31;;;;;;;;;8.50;8.25;;;;;20.52;66.23;101984.44;5054819;28;46106;-60
2021/07/18 01:31:58;;;;;;;;;12.50;11.00;;;;;20.49;66.43;101965.25;5049505;28;45261;-59
2021/07/18 01:34:23;;;;;;;;;12.25;11.50;;;;;20.48;66.17;101964.38;5045873;28;45323;-60
2021/07/18 01:36:51;;;;;;;;;10.00;9.00;;;;;20.49;65.86;101983.72;5046227;28;45489;-60
2021/07/18 01:39:17;;;;;;;;;11.25;10.50;;;;;20.45;66.54;101975.09;5052924;28;46396;-60
2021/07/18 01:41:43;;;;;;;;;9.50;9.50;;;;;20.43;67.25;101969.03;5052977;28;45538;-59
2021/07/18 01:44:08;;;;;;;;;11.75;9.50;;;;;20.40;66.75;101970.91;5053177;28;45938;-59
2021/07/18 01:46:35;;;;;;;;;13.25;11.50;;;;;20.36;66.58;101967.59;5047848;28;45509;-59
2021/07/18 01:49:07;;;;;;;;;10.50;9.00;;;;;20.32;66.76;101966.88;5054103;28;45508;-61
2021/07/18 01:51:34;;;;;;;;;12.00;9.00;;;;;20.29;66.57;101969.69;5050019;28;45486;-59
2021/07/18 01:54:01;;;;;;;;;15.50;12.00;;;;;20.28;66.35;101967.13;5058537;28;45399;-60
2021/07/18 01:56:27;;;;;;;;;13.75;12.50;;;;;20.26;66.26;101967.19;5059554;28;45255;-60
2021/07/18 01:58:53;;;;;;;;;11.50;9.25;;;;;20.22;65.80;101962.09;5059705;28;46023;-60
2021/07/18 02:01:27;;;;;;;;;12.50;10.25;;;;;20.18;67.58;101963.19;5045435;28;45195;-60
2021/07/18 02:03:53;;;;;;;;;9.25;9.00;;;;;20.11;66.89;101960.00;5048060;28;45412;-60
2021/07/18 02:06:21;;;;;;;;;14.75;9.00;;;;;20.08;67.59;101962.78;5056614;28;45348;-60
2021/07/18 02:08:47;;;;;;;;;15.00;11.50;;;;;20.07;67.63;101962.88;5047691;28;47167;-60
2021/07/18 02:11:13;;;;;;;;;12.50;10.25;;;;;20.05;67.43;101961.16;5041320;28;45590;-60
2021/07/18 02:13:39;;;;;;;;;11.25;8.00;;;;;20.02;67.10;101961.31;5059858;28;45313;-60
2021/07/18 02:16:04;;;;;;;;;12.50;11.50;;;;;20.02;67.14;101963.94;5057899;28;45374;-60
2021/07/18 02:18:30;;;;;;;;;12.75;12.00;;;;;20.00;68.11;101964.91;5041512;28;48579;-60
2021/07/18 02:20:56;;;;;;;;;15.00;10.50;;;;;19.99;67.62;101960.56;5057579;28;45518;-60
2021/07/18 02:23:22;;;;;;;;;10.25;9.75;;;;;19.99;67.81;101957.94;5059710;28;45284;-61
2021/07/18 02:25:48;;;;;;;;;13.50;12.00;;;;;19.97;67.75;101963.28;5059361;28;45280;-61
2021/07/18 02:28:14;;;;;;;;;10.25;9.00;;;;;19.93;68.21;101964.38;5059086;28;45371;-61
2021/07/18 02:30:39;;;;;;;;;10.25;9.25;;;;;19.92;68.03;101964.44;5058945;28;45375;-59
2021/07/18 02:33:05;;;;;;;;;13.75;10.00;;;;;19.91;67.51;101960.09;5059824;28;45228;-61
2021/07/18 02:35:30;;;;;;;;;13.00;7.75;;;;;19.89;66.77;101956.69;5034773;28;45542;-59
2021/07/18 02:37:56;;;;;;;;;10.25;10.00;;;;;19.84;68.41;101945.50;5059311;28;46590;-59
2021/07/18 02:40:22;;;;;;;;;10.75;9.25;;;;;19.81;68.57;101951.72;5058908;28;45285;-60
2021/07/18 02:42:48;;;;;;;;;14.25;9.50;;;;;19.78;68.30;101951.03;5059696;28;45417;-61
2021/07/18 02:45:18;;;;;;;;;13.50;10.25;;;;;19.77;68.10;101946.69;5058924;28;45493;-60
2021/07/18 02:47:43;;;;;;;;;12.50;8.25;;;;;19.73;68.55;101954.75;5062135;28;46166;-60
2021/07/18 02:50:11;;;;;;;;;15.75;11.75;;;;;19.72;68.67;101947.75;5062372;28;45442;-61
2021/07/18 02:52:37;;;;;;;;;18.00;12.50;;;;;19.71;68.91;101946.06;5063065;28;45457;-63
2021/07/18 02:55:04;;;;;;;;;12.25;11.25;;;;;19.67;69.16;101943.63;5062228;28;45366;-63
2021/07/18 02:57:29;;;;;;;;;14.25;12.00;;;;;19.66;69.13;101945.41;5062619;28;46182;-63
2021/07/18 02:59:55;;;;;;;;;15.00;11.75;;;;;19.65;68.90;101938.44;5058624;28;45340;-63
2021/07/18 03:02:20;;;;;;;;;11.00;10.75;;;;;19.62;68.99;101943.84;5044134;28;46273;-60
2021/07/18 03:04:45;;;;;;;;;9.75;9.75;;;;;19.61;68.99;101942.09;5039675;28;45346;-61
2021/07/18 03:07:11;;;;;;;;;11.50;11.50;;;;;19.61;69.04;101952.66;5062583;28;45427;-60
2021/07/18 03:09:36;;;;;;;;;12.00;10.50;;;;;19.61;69.39;101950.03;5043249;28;45667;-60
2021/07/18 03:12:02;;;;;;;;;11.00;11.00;;;;;19.60;69.16;101950.94;5052596;28;45421;-60
2021/07/18 03:14:27;;;;;;;;;13.50;11.25;;;;;19.58;69.11;101941.41;5057319;28;45219;-61
2021/07/18 03:16:52;;;;;;;;;13.50;11.00;;;;;19.57;69.89;101951.09;5060980;28;47325;-61
2021/07/18 03:19:18;;;;;;;;;10.50;8.00;;;;;19.56;69.70;101951.16;5061961;28;45469;-62
2021/07/18 03:21:43;;;;;;;;;13.50;12.00;;;;;19.55;69.53;101952.09;5062595;28;45313;-62
2021/07/18 03:24:09;;;;;;;;;15.75;11.75;;;;;19.54;69.25;101940.69;5061877;28;45391;-62
2021/07/18 03:26:34;;;;;;;;;19.25;14.50;;;;;19.50;69.07;101947.00;5062268;28;46009;-62
2021/07/18 03:29:00;;;;;;;;;13.75;11.50;;;;;19.46;69.70;101948.06;5061429;28;45221;-62
2021/07/18 03:31:25;;;;;;;;;14.75;12.75;;;;;19.43;69.09;101948.22;5062535;28;45789;-61
2021/07/18 03:33:51;;;;;;;;;11.50;11.50;;;;;19.39;69.56;101946.63;5061774;28;45214;-62
2021/07/18 03:36:17;;;;;;;;;12.50;10.00;;;;;19.36;70.05;101939.72;5059214;28;45324;-62
2021/07/18 03:38:42;;;;;;;;;12.50;10.50;;;;;19.33;70.01;101939.84;5061660;28;45473;-60
2021/07/18 03:41:07;;;;;;;;;11.75;11.50;;;;;19.29;70.15;101945.34;5062329;28;45415;-61
2021/07/18 03:43:33;;;;;;;;;13.50;11.00;;;;;19.24;70.09;101937.63;5061653;28;45348;-61
2021/07/18 03:45:58;;;;;;;;;11.50;10.00;;;;;19.23;69.86;101943.84;5062032;28;46696;-61
2021/07/18 03:48:24;;;;;;;;;13.25;12.00;;;;;19.21;70.45;101940.38;5061592;28;45406;-61
2021/07/18 03:50:49;;;;;;;;;11.00;10.25;;;;;19.17;71.08;101944.09;5060673;28;45335;-61
2021/07/18 03:53:15;;;;;;;;;14.75;13.75;;;;;19.13;70.69;101939.88;5030368;28;45267;-61
2021/07/18 03:55:41;;;;;;;;;12.25;10.00;;;;;19.14;70.06;101938.97;5060548;28;48036;-61
2021/07/18 03:58:06;;;;;;;;;14.25;10.25;;;;;19.11;71.12;101942.59;5061025;28;45439;-61
2021/07/18 04:00:32;;;;;;;;;18.50;17.00;;;;;19.07;71.82;101945.44;5053193;28;45328;-61
2021/07/18 04:02:57;;;;;;;;;14.00;12.00;;;;;19.07;70.90;101945.44;5041509;28;45289;-61
2021/07/18 04:05:23;;;;;;;;;11.50;11.00;;;;;19.05;70.68;101942.00;5061643;28;45244;-61
2021/07/18 04:07:48;;;;;;;;;12.50;11.75;;;;;19.03;70.82;101941.22;5061217;28;45319;-60
2021/07/18 04:10:13;;;;;;;;;17.50;9.25;;;;;18.99;70.95;101944.88;5061430;28;45324;-61
2021/07/18 04:12:39;;;;;;;;;11.00;11.00;;;;;18.98;70.79;101943.19;5061137;28;45159;-61
2021/07/18 04:15:06;;;;;;;;;13.00;12.00;;;;;18.94;71.09;101947.72;5061579;28;46958;-60
2021/07/18 04:17:31;;;;;;;;;11.00;9.75;;;;;18.89;72.42;101944.44;5061121;28;45217;-61
2021/07/18 04:19:57;;;;;;;;;14.00;11.75;;;;;18.88;71.06;101948.00;5061708;28;45208;-62
2021/07/18 04:22:22;;;;;;;;;11.75;10.75;;;;;18.83;70.86;101937.69;5061121;28;45490;-62
2021/07/18 04:24:47;;;;;;;;;13.00;11.00;;;;;18.86;71.01;101944.59;5061391;28;46260;-62
2021/07/18 04:27:13;;;;;;;;;13.75;12.50;;;;;18.87;71.12;101955.97;5048980;28;45459;-62
2021/07/18 04:29:38;;;;;;;;;14.75;13.00;;;;;18.84;72.16;101959.59;5061640;28;45310;-62
2021/07/18 04:32:05;;;;;;;;;13.25;12.00;;;;;18.83;71.58;101957.88;5060983;28;45328;-62
2021/07/18 04:34:30;;;;;;;;;13.75;13.00;;;;;18.82;71.75;101964.03;5061100;28;45336;-61
2021/07/18 04:36:56;;;;;;;;;13.50;11.00;;;;;18.81;72.48;101959.69;5057534;28;45224;-62
2021/07/18 04:39:21;;;;;;;;;13.00;13.00;;;;;18.79;71.54;101954.50;5061350;28;46591;-62
2021/07/18 04:41:46;;;;;;;;;13.25;10.75;;;;;18.80;71.49;101960.63;5060711;28;45273;-62
2021/07/18 04:44:12;;;;;;;;;15.00;10.25;;;;;18.79;71.73;101962.41;5061143;28;46298;-62
2021/07/18 04:46:37;;;;;;;;;13.25;10.75;;;;;18.78;71.43;101963.31;5060700;28;45299;-62
2021/07/18 04:49:03;;;;;;;;;13.50;11.75;;;;;18.78;72.51;101962.47;5059968;28;45227;-62
2021/07/18 04:51:28;;;;;;;;;13.25;11.50;;;;;18.74;71.55;101960.88;5060424;28;45160;-62
2021/07/18 04:53:53;;;;;;;;;12.00;12.00;;;;;18.78;72.19;101960.69;5060739;28;46533;-62
2021/07/18 04:56:21;;;;;;;;;13.50;12.50;;;;;18.80;71.80;101961.47;5060503;28;45302;-62
2021/07/18 04:58:46;;;;;;;;;12.25;12.00;;;;;18.82;72.72;101964.03;5061188;28;45224;-62
2021/07/18 05:01:12;;;;;;;;;14.25;9.50;;;;;18.82;71.96;101969.31;5047891;28;45366;-62
2021/07/18 05:03:38;;;;;;;;;12.25;10.75;;;;;18.83;72.38;101969.28;5046682;28;46265;-62
2021/07/18 05:06:05;;;;;;;;;14.00;11.25;;;;;18.85;71.65;101971.84;5060612;28;45435;-61
2021/07/18 05:08:33;;;;;;;;;12.25;11.75;;;;;18.84;71.61;101971.00;5059615;28;45310;-61
2021/07/18 05:10:58;;;;;;;;;12.50;10.00;;;;;18.88;71.91;101981.38;5060323;28;45208;-61
2021/07/18 05:13:24;;;;;;;;;16.50;12.25;;;;;18.87;72.14;101985.81;5047412;28;46181;-61
2021/07/18 05:15:49;;;;;;;;;11.25;10.50;;;;;18.88;71.91;101984.03;5060591;28;45307;-61
2021/07/18 05:18:15;;;;;;;;;13.50;13.25;;;;;18.90;71.53;101984.81;5060764;28;45221;-61
2021/07/18 05:20:41;;;;;;;;;13.25;12.00;;;;;18.92;71.50;101978.56;5060315;28;45328;-61
2021/07/18 05:23:08;;;;;;;;;14.25;12.00;;;;;18.96;71.81;101977.50;5047318;28;46417;-61
2021/07/18 05:25:33;;;;;;;;;10.00;10.00;;;;;19.00;71.42;101981.72;5060243;28;45296;-61
2021/07/18 05:27:58;;;;;;;;;14.25;11.50;;;;;19.05;71.06;101982.38;5060065;28;45399;-61
2021/07/18 05:30:24;;;;;;;;;10.75;10.50;;;;;19.06;71.35;101980.59;5059121;28;45907;-61
2021/07/18 05:32:49;;;;;;;;;12.25;12.00;;;;;19.07;70.94;101975.28;5059888;28;46011;-61
2021/07/18 05:35:15;;;;;;;;;12.25;11.25;;;;;19.08;71.02;101976.97;5056624;28;45366;-61
2021/07/18 05:37:40;;;;;;;;;11.75;9.50;;;;;19.09;71.50;101976.06;5060069;28;45338;-61
2021/07/18 05:40:08;;;;;;;;;12.50;12.00;;;;;19.13;71.99;101971.50;5060013;28;45506;-61
2021/07/18 05:42:34;;;;;;;;;12.50;11.00;;;;;19.12;71.13;101975.91;5047370;28;45259;-61
2021/07/18 05:44:59;;;;;;;;;11.50;10.00;;;;;19.17;71.95;101970.44;5059945;28;45194;-61
2021/07/18 05:47:25;;;;;;;;;11.75;5.50;;;;;19.21;71.04;101976.44;5060167;28;45227;-61
2021/07/18 05:49:52;;;;;;;;;13.75;11.25;;;;;19.23;71.44;101975.47;5059701;28;45483;-61
2021/07/18 05:52:17;;;;;;;;;12.50;10.25;;;;;19.26;70.95;101970.06;5047040;28;46340;-61
2021/07/18 05:54:42;;;;;;;;;11.25;8.00;;;;;19.31;70.77;101978.59;5059490;28;45348;-62
2021/07/18 05:57:08;;;;;;;;;12.50;9.00;;;;;19.34;70.27;101969.69;5060259;28;45315;-62
2021/07/18 05:59:33;;;;;;;;;11.75;8.50;;;;;19.35;70.66;101984.59;5059329;28;45229;-61
2021/07/18 06:01:59;;;;;;;;;11.25;10.00;;;;;19.35;70.28;101981.97;5052370;28;46084;-62
2021/07/18 06:04:25;;;;;;;;;10.25;9.75;;;;;19.44;70.77;101984.19;5052393;28;45430;-62
2021/07/18 06:06:51;;;;;;;;;11.25;7.75;;;;;19.50;70.52;101977.78;5059545;28;45323;-62
2021/07/18 06:09:17;;;;;;;;;13.00;10.25;;;;;19.58;70.07;101987.09;5059005;28;45475;-61
2021/07/18 06:11:42;;;;;;;;;8.75;6.75;;;;;19.65;69.99;101988.53;5057785;28;46445;-60
2021/07/18 06:14:07;;;;;;;;;13.00;9.50;;;;;19.66;69.64;101990.25;5059626;28;45391;-61
2021/07/18 06:16:33;;;;;;;;;13.25;10.75;;;;;19.70;69.82;101983.91;5059444;28;45269;-63
2021/07/18 06:18:58;;;;;;;;;12.25;10.25;;;;;19.72;69.63;101976.78;5059840;28;45288;-61
2021/07/18 06:21:23;;;;;;;;;9.00;9.00;;;;;19.75;69.45;101991.59;5045381;28;45201;-61
2021/07/18 06:23:49;;;;;;;;;7.75;6.00;;;;;19.81;69.36;101985.19;5059580;28;45427;-61
2021/07/18 06:26:15;;;;;;;;;10.75;7.50;;;;;19.82;69.53;101986.88;5059170;28;45423;-60
2021/07/18 06:28:40;;;;;;;;;12.00;10.00;;;;;19.86;69.16;101981.41;5059089;28;45426;-60
2021/07/18 06:31:06;;;;;;;;;10.25;9.50;;;;;19.92;69.71;101993.47;5058832;28;45343;-63
2021/07/18 06:33:31;;;;;;;;;11.00;9.25;;;;;20.02;69.02;101994.72;5059603;28;45348;-62
2021/07/18 06:35:57;;;;;;;;;7.25;7.25;;;;;20.09;69.51;101990.03;5056140;28;45173;-62
2021/07/18 06:38:23;;;;;;;;;10.00;8.75;;;;;20.22;68.67;101991.16;5046533;28;45341;-62
2021/07/18 06:40:49;;;;;;;;;7.50;7.00;;;;;20.30;68.99;101991.66;5058406;28;45332;-62
2021/07/18 06:43:14;;;;;;;;;10.00;8.00;;;;;20.36;68.47;102000.13;5057963;28;45383;-62
2021/07/18 06:45:40;;;;;;;;;6.75;6.75;;;;;20.43;68.29;101994.59;5059164;28;45335;-62
2021/07/18 06:48:06;;;;;;;;;8.00;8.00;;;;;20.53;68.02;102003.75;5059297;28;45545;-62
2021/07/18 06:50:31;;;;;;;;;8.25;6.75;;;;;20.56;68.32;102003.63;5058524;28;46376;-62
2021/07/18 06:52:56;;;;;;;;;8.50;7.75;;;;;20.62;67.87;102006.84;5059167;28;45342;-62
2021/07/18 06:55:22;;;;;;;;;11.25;10.25;;;;;20.70;67.99;102000.31;5045641;28;45296;-61
2021/07/18 06:57:48;;;;;;;;;9.00;8.25;;;;;20.79;67.59;102005.09;5059188;28;45324;-59
2021/07/18 07:00:15;;;;;;;;;9.00;8.75;;;;;20.85;67.21;101997.75;5052309;28;45261;-60
2021/07/18 07:02:40;;;;;;;;;12.25;9.25;;;;;20.99;66.95;102006.75;5040073;28;45617;-59
2021/07/18 07:05:06;;;;;;;;;11.00;7.50;;;;;21.07;66.66;102008.09;5057275;28;45162;-60
2021/07/18 07:07:32;;;;;;;;;10.50;6.50;;;;;21.15;66.95;102007.69;5059328;28;45512;-61
2021/07/18 07:09:57;;;;;;;;;7.50;7.50;;;;;21.21;66.43;101999.41;5058299;28;45249;-60
2021/07/18 07:12:24;;;;;;;;;10.50;8.00;;;;;21.24;66.13;102000.19;5058917;28;45396;-60
2021/07/18 07:14:49;;;;;;;;;8.50;6.75;;;;;21.34;66.04;102000.53;5058845;28;45539;-61
2021/07/18 07:17:14;;;;;;;;;9.25;8.50;;;;;21.43;65.65;102008.00;5059203;28;45397;-60
2021/07/18 07:19:40;;;;;;;;;6.25;6.25;;;;;21.50;66.22;102000.59;5058215;28;45438;-60
2021/07/18 07:22:05;;;;;;;;;8.25;7.75;;;;;21.60;65.77;102003.56;5059060;28;45361;-61
2021/07/18 07:24:30;;;;;;;;;9.25;8.50;;;;;21.65;65.47;102007.72;5058462;28;45462;-63
2021/07/18 07:26:56;;;;;;;;;9.25;7.00;;;;;21.75;65.17;102008.91;5052789;28;45446;-62
2021/07/18 07:29:21;;;;;;;;;8.50;7.50;;;;;21.83;65.27;101996.13;5056843;28;47445;-63
2021/07/18 07:31:46;;;;;;;;;9.00;8.75;;;;;21.92;64.88;102002.69;5058696;28;45296;-62
2021/07/18 07:34:12;;;;;;;;;4.50;4.50;;;;;22.01;64.58;102010.13;5061719;28;45491;-61
2021/07/18 07:36:37;;;;;;;;;6.00;4.25;;;;;22.06;64.32;102000.19;5058097;28;45303;-61
2021/07/18 07:39:03;;;;;;;;;7.25;5.00;;;;;22.13;63.82;102008.63;5060056;28;47164;-61
2021/07/18 07:41:29;;;;;;;;;6.75;5.50;;;;;22.22;63.75;102005.47;5062138;28;45562;-61
2021/07/18 07:43:57;;;;;;;;;8.75;7.00;;;;;22.28;63.24;101998.97;5061732;28;45249;-60
2021/07/18 07:46:24;;;;;;;;;7.00;7.00;;;;;22.37;63.19;102009.03;5062244;28;45170;-61
2021/07/18 07:48:50;;;;;;;;;5.75;5.75;;;;;22.45;63.13;101996.22;5061492;28;46246;-61
2021/07/18 07:51:15;;;;;;;;;7.50;5.50;;;;;22.56;62.92;101999.09;5061874;28;45583;-62
2021/07/18 07:53:42;;;;;;;;;7.50;6.00;;;;;22.63;62.15;102000.47;5055112;28;45304;-61
2021/07/18 07:56:07;;;;;;;;;9.50;6.50;;;;;22.69;61.97;101993.94;5055169;28;45364;-62
2021/07/18 07:58:34;;;;;;;;;7.75;5.00;;;;;22.75;60.74;102002.38;5061301;28;45281;-63
2021/07/18 08:00:59;;;;;;;;;9.00;5.75;;;;;22.84;61.39;102002.84;5048997;28;45323;-62
2021/07/18 08:03:25;;;;;;;;;3.00;3.00;;;;;22.95;60.77;102003.03;5043712;28;45230;-63
2021/07/18 08:05:51;;;;;;;;;6.00;5.00;;;;;23.03;60.38;102000.81;5061755;28;45158;-63
2021/07/18 08:08:17;;;;;;;;;5.00;5.00;;;;;23.08;60.26;102001.38;5061053;28;45157;-62
2021/07/18 08:10:42;;;;;;;;;4.00;4.00;;;;;23.12;60.27;102002.03;5061354;28;45280;-63
2021/07/18 08:13:07;;;;;;;;;7.00;5.50;;;;;23.19;59.92;101993.63;5061264;28;45286;-63
2021/07/18 08:15:34;;;;;;;;;5.75;5.00;;;;;23.26;59.51;101999.44;5061804;28;45477;-63
2021/07/18 08:17:59;;;;;;;;;4.50;4.00;;;;;23.30;59.33;101991.19;5061077;28;46296;-61
2021/07/18 08:20:27;;;;;;;;;4.00;3.75;;;;;23.35;59.28;101990.88;5061445;28;45292;-63
2021/07/18 08:22:54;;;;;;;;;4.25;4.00;;;;;23.42;58.60;101988.69;5061030;28;45312;-58
2021/07/18 08:25:22;;;;;;;;;5.75;4.75;;;;;23.50;58.98;101986.44;5061645;28;45221;-59
2021/07/18 08:27:47;;;;;;;;;6.25;4.50;;;;;23.57;58.43;101982.50;5059131;28;48568;-58
2021/07/18 08:30:14;;;;;;;;;7.25;5.00;;;;;23.67;57.22;101987.13;5061335;28;45335;-66
2021/07/18 08:32:40;;;;;;;;;5.00;5.00;;;;;23.75;56.15;101981.34;5061242;28;45403;-60
2021/07/18 08:35:07;;;;;;;;;6.75;4.50;;;;;23.83;57.49;101976.41;5058936;28;45544;-60
2021/07/18 08:37:33;;;;;;;;;5.50;5.00;;;;;23.95;57.15;101988.88;5060109;28;46202;-68
2021/07/18 08:40:00;;;;;;;;;2.75;2.50;;;;;24.01;56.70;101974.34;5061202;28;45963;-63
2021/07/18 08:42:25;;;;;;;;;3.50;2.25;;;;;24.07;56.00;101975.78;5055626;28;45237;-63
2021/07/18 08:44:51;;;;;;;;;4.25;4.00;;;;;24.13;56.63;101980.69;5060227;28;45165;-62
2021/07/18 08:47:18;;;;;;;;;3.50;3.50;;;;;24.19;56.66;101978.47;5060628;28;45254;-61
2021/07/18 08:49:43;;;;;;;;;1.00;1.00;;;;;24.24;55.93;101972.91;5060881;28;45671;-63
2021/07/18 08:52:10;;;;;;;;;4.00;4.00;;;;;24.28;55.35;101974.38;5057118;28;45426;-65
2021/07/18 08:54:36;;;;;;;;;4.50;4.50;;;;;24.33;54.51;101974.13;5048661;28;45347;-63
2021/07/18 08:57:02;;;;;;;;;3.00;3.00;;;;;24.41;54.07;101977.09;5051703;28;45285;-61
2021/07/18 08:59:28;;;;;;;;;3.75;3.75;;;;;24.47;54.56;101966.94;5054122;28;45335;-61
2021/07/18 09:01:54;;;;;;;;;3.25;2.75;;;;;24.54;53.54;101976.19;5038825;28;45280;-62
2021/07/18 09:04:20;;;;;;;;;5.25;4.00;;;;;24.62;53.25;101964.19;5050830;28;45585;-61
2021/07/18 09:06:51;;;;;;;;;5.00;4.00;;;;;24.68;52.25;101961.16;5059028;28;45500;-61
2021/07/18 09:09:19;;;;;;;;;2.50;1.50;;;;;24.77;52.54;101971.16;5059041;28;45585;-63
2021/07/18 09:11:54;;;;;;;;;3.00;3.00;;;;;24.84;52.21;101967.97;5060049;28;45332;-66
2021/07/18 09:14:19;;;;;;;;;5.00;4.00;;;;;24.88;52.04;101958.84;5058224;28;45391;-59
2021/07/18 09:16:49;;;;;;;;;2.00;2.00;;;;;24.94;51.37;101962.03;5058817;28;47046;-58
2021/07/18 09:19:35;;;;;;;;;4.00;2.00;;;;;25.02;51.47;101960.56;5060017;28;45331;-58
2021/07/18 09:22:03;;;;;;;;;4.25;3.00;;;;;25.15;51.24;101963.22;5060756;28;45473;-59
2021/07/18 09:24:50;;;;;;;;;6.00;4.00;;;;;25.20;50.85;101954.94;5059564;27;45392;-64
2021/07/18 09:27:19;;;;;;;;;2.00;2.00;;;;;25.27;49.70;101962.38;5040701;28;48553;-62
2021/07/18 09:29:50;;;;;;;;;3.25;3.00;;;;;25.31;50.12;101957.69;5042282;28;45630;-61
2021/07/18 09:32:21;;;;;;;;;3.50;3.50;;;;;25.33;49.14;101956.63;5060054;28;45248;-62
2021/07/18 09:34:51;;;;;;;;;4.00;3.00;;;;;25.41;49.39;101951.59;5060441;28;45243;-66
2021/07/18 09:37:28;;;;;;;;;3.25;3.00;;;;;25.48;48.53;101958.22;5056738;28;46129;-64
2021/07/18 09:39:57;;;;;;;;;3.75;3.75;;;;;25.57;49.29;101964.69;5060177;28;45360;-63
2021/07/18 09:42:44;;;;;;;;;3.75;3.25;;;;;25.65;49.45;101958.84;5059893;28;45440;-65
2021/07/18 09:45:12;;;;;;;;;4.00;4.00;;;;;25.68;48.62;101958.63;5058555;28;45299;-66
2021/07/18 09:48:04;;;;;;;;;7.00;3.50;;;;;25.66;48.72;101942.75;5051732;28;46431;-65
2021/07/18 09:50:41;;;;;;;;;3.00;3.00;;;;;25.73;48.73;101952.00;5038587;28;45291;-66
2021/07/18 09:53:19;;;;;;;;;3.25;3.00;;;;;25.81;48.16;101958.59;5057859;28;45302;-66
2021/07/18 09:56:08;;;;;;;;;3.75;2.75;;;;;25.83;45.95;101951.34;5058382;28;45734;-64
2021/07/18 09:58:38;;;;;;;;;3.75;3.75;;;;;25.88;46.45;101955.38;5059241;28;45289;-68
2021/07/18 10:01:09;;;;;;;;;3.50;3.50;;;;;25.98;46.82;101950.22;5059064;28;45447;-62
2021/07/18 10:03:34;;;;;;;;;4.00;4.00;;;;;26.08;46.81;101951.25;5044217;28;45543;-62
2021/07/18 10:06:11;;;;;;;;;4.00;4.00;;;;;26.21;46.54;101956.50;5059489;28;45499;-63
2021/07/18 10:08:38;;;;;;;;;4.00;3.75;;;;;26.27;46.55;101945.41;5046518;28;45264;-64
2021/07/18 10:11:05;;;;;;;;;7.50;6.00;;;;;26.30;46.73;101942.53;5059077;28;45394;-64
2021/07/18 10:13:31;;;;;;;;;3.75;3.75;;;;;26.36;46.97;101948.28;5052288;28;45414;-64
2021/07/18 10:15:57;;;;;;;;;6.00;5.00;;;;;26.40;45.81;101937.38;5053302;28;45335;-64
2021/07/18 10:18:22;;;;;;;;;3.25;3.25;;;;;26.40;45.16;101948.03;5057278;28;45529;-63
2021/07/18 10:20:48;;;;;;;;;5.75;4.50;;;;;26.43;45.03;101947.81;5056397;28;45633;-64
2021/07/18 10:23:16;;;;;;;;;4.25;4.25;;;;;26.49;45.17;101942.03;5057342;28;45281;-63
2021/07/18 10:25:42;;;;;;;;;5.00;4.00;;;;;26.56;45.31;101940.59;5056869;28;46155;-66
2021/07/18 10:28:09;;;;;;;;;4.00;4.00;;;;;26.56;45.26;101933.44;5057280;28;45442;-66
2021/07/18 10:30:35;;;;;;;;;4.50;4.50;;;;;26.58;45.25;101949.31;5054526;28;45408;-66
2021/07/18 10:33:01;;;;;;;;;6.75;5.00;;;;;26.60;44.28;101942.03;5041906;28;45285;-64
2021/07/18 10:35:29;;;;;;;;;3.75;3.00;;;;;26.61;44.43;101933.06;5040119;28;45266;-66
2021/07/18 10:37:54;;;;;;;;;8.00;6.75;;;;;26.62;43.29;101932.09;5058814;28;45625;-66
2021/07/18 10:40:23;;;;;;;;;7.00;5.50;;;;;26.69;42.49;101938.69;5052046;27;45303;-67
2021/07/18 10:42:49;;;;;;;;;4.25;3.25;;;;;26.83;42.61;101930.50;5048372;28;45339;-68
2021/07/18 10:45:19;;;;;;;;;6.00;6.00;;;;;26.97;43.06;101932.91;5057276;28;46191;-66
2021/07/18 10:48:05;;;;;;;;;4.00;3.25;;;;;27.06;41.90;101922.53;5059141;28;45275;-66
2021/07/18 10:50:59;;;;;;;;;6.00;4.75;;;;;27.18;42.89;101921.56;5058323;28;45512;-66
2021/07/18 10:53:29;;;;;;;;;7.75;7.00;;;;;27.29;43.58;101924.25;5056007;28;45442;-67
2021/07/18 10:55:55;;;;;;;;;9.50;5.75;;;;;27.33;43.34;101919.50;5059154;28;45257;-66
2021/07/18 10:58:42;;;;;;;;;4.75;4.75;;;;;27.37;43.35;101913.78;5058199;28;46232;-67
2021/07/18 11:01:10;;;;;;;;;4.00;4.00;;;;;27.36;42.73;101911.25;5045528;28;45685;-67
2021/07/18 11:03:38;;;;;;;;;6.25;6.00;;;;;27.38;43.63;101918.16;5045332;28;45414;-66
2021/07/18 11:06:19;;;;;;;;;8.50;7.25;;;;;27.47;42.61;101922.78;5046125;28;45501;-62
2021/07/18 11:09:03;;;;;;;;;8.00;5.00;;;;;27.48;42.81;101907.59;5049743;28;46149;-64
2021/07/18 11:11:49;;;;;;;;;6.00;6.00;;;;;27.43;42.67;101905.31;5062122;28;45305;-66
2021/07/18 11:14:27;;;;;;;;;5.00;5.00;;;;;27.47;43.16;101917.44;5060985;28;45277;-65
2021/07/18 11:16:55;;;;;;;;;7.00;5.75;;;;;27.52;42.63;101909.91;5062729;28;45291;-65